Azalea, OR

12:15 PM PDT on May 22, 2015 (GMT -0700)
Glendale, Oregon | | Change Station
CLOSE
Current Station
Personal Weather Station
Location: Glendale, OR
Elevation: 1403 ft
Nearby Weather Stations

Elev 1403 ft 42.74 °N, 123.43 °W | Updated 13 minutes ago

Overcast
Overcast
59.9 °F
Feels Like 59.9 °F
N
2.0
Wind Variable Wind from NNE
Gusts 3.0 mph

Today
High -- | Low -- °F
--% Chance of Precip.
Yesterday
High -- | Low -- °F
Precip. -- in
5:43 AM 8:35 PM
Waxing Crescent, 23% visible
Pressure 30.05 in
Visibility 10.0 miles
Clouds Scattered Clouds 2300 ft
Overcast 3000 ft
Dew Point 52 °F
Humidity 76%
Rainfall 0.00 in
Snow Depth Not available.
UV 3 out of 12
Pollen 6.40 out of 12
Air Quality Not available.
Flu Activity Local Activity
METAR KRBG 221853Z AUTO 36005KT 10SM SCT023 OVC030 16/09 A3005 RMK AO2 SLP176 T01610094

More Conditions Fewer Conditions

Pressure 30.05 in
Visibility 10.0 miles
Clouds Scattered Clouds 2300 ft
Overcast 3000 ft
Dew Point 52 °F
Humidity 76%
Rainfall 0.00 in
Snow Depth Not available.
UV 3 out of 12
Pollen 6.40 out of 12
Air Quality Not available.
Flu Activity Local Activity
METAR KRBG 221853Z AUTO 36005KT 10SM SCT023 OVC030 16/09 A3005 RMK AO2 SLP176 T01610094

More Conditions Fewer Conditions

10-Day Weather Forecast

Almanac

Astronomy

May. 22, 2015 Rise Set
Actual Time
Civil Twilight
Nautical Twilight
Astronomical Twilight
Moon
Length of Visible Light
Length of Day
Tomorrow will be .
, % of the Moon is Illuminated

Today's Extremes

State Highs State Lows

Community

WunderPhotos

Upload Photos

1,823,279 photos uploaded!

WunderBlogs® & News

Nearby

Air Quality

  Air Quality AQ Index Pollutant
Not available.

Snow Depth

Station Depth Elevation

Earthquake Activity

City Distance Mag. Time & Date
Minimum magnitude displayed is 2.5.

Coastal Water Temperatures

Place Temperature

Stations

Nearby Weather Stations

Station Location Temp. Windchill Dew Point Humidity Wind Precip. Elev Updated Type